createdAt,value
2023-03-05T00:01:34.802Z,100418.00
2023-03-05T00:04:17.884Z,100419.60
2023-03-05T00:06:55.642Z,100423.60
2023-03-05T00:09:31.720Z,100419.60
2023-03-05T00:12:10.209Z,100421.20
2023-03-05T00:14:48.199Z,100417.60
2023-03-05T00:17:25.273Z,100418.40
2023-03-05T00:20:03.478Z,100415.60
2023-03-05T00:22:42.048Z,100414.60
2023-03-05T00:25:20.995Z,100411.60
2023-03-05T00:27:57.597Z,100409.20
2023-03-05T00:30:34.227Z,100408.20
2023-03-05T00:33:10.897Z,100403.80
2023-03-05T00:35:50.667Z,100404.80
2023-03-05T00:38:28.102Z,100405.40
2023-03-05T00:41:04.206Z,100402.20
2023-03-05T00:43:41.039Z,100401.60
2023-03-05T00:46:17.560Z,100400.80
2023-03-05T00:48:55.001Z,100400.80
2023-03-05T00:51:31.352Z,100400.00
2023-03-05T00:54:08.828Z,100396.00
2023-03-05T00:56:45.836Z,100398.40
2023-03-05T00:59:23.241Z,100400.20
2023-03-05T01:01:58.761Z,100395.60
2023-03-05T01:04:34.959Z,100397.40
2023-03-05T01:07:11.371Z,100397.60
2023-03-05T01:09:47.852Z,100395.40
2023-03-05T01:12:24.098Z,100397.20
2023-03-05T01:14:59.840Z,100397.80
2023-03-05T01:17:36.456Z,100398.00
2023-03-05T01:20:21.736Z,100401.60
2023-03-05T01:22:59.249Z,100396.20
2023-03-05T01:25:35.783Z,100400.20
2023-03-05T01:28:13.642Z,100397.00
2023-03-05T01:30:50.768Z,100393.60
2023-03-05T01:33:27.828Z,100391.40
2023-03-05T01:36:03.887Z,100396.80
2023-03-05T01:38:40.199Z,100391.20
2023-03-05T01:41:17.644Z,100390.00
2023-03-05T01:43:55.495Z,100387.20
2023-03-05T01:46:38.823Z,100386.40
2023-03-05T01:49:29.219Z,100383.60
2023-03-05T01:52:18.093Z,100373.20
2023-03-05T01:55:00.832Z,100376.00
2023-03-05T01:57:42.785Z,100373.40
2023-03-05T02:00:28.010Z,100369.40
2023-03-05T02:03:08.527Z,100376.00
2023-03-05T02:05:46.685Z,100370.40
2023-03-05T02:08:25.089Z,100365.80
2023-03-05T02:11:03.282Z,100368.40
2023-03-05T02:13:42.947Z,100368.20
2023-03-05T02:16:19.939Z,100370.00
2023-03-05T02:18:56.384Z,100367.40
2023-03-05T02:21:42.232Z,100361.40
2023-03-05T02:24:22.036Z,100358.40
2023-03-05T02:26:59.376Z,100360.60
2023-03-05T02:29:38.824Z,100355.60
2023-03-05T02:32:16.785Z,100354.20
2023-03-05T02:34:53.728Z,100348.20
2023-03-05T02:37:30.161Z,100343.00
2023-03-05T02:40:08.143Z,100342.40
2023-03-05T02:42:44.197Z,100344.20
2023-03-05T02:45:21.581Z,100347.20
2023-03-05T02:47:58.035Z,100347.20
2023-03-05T02:50:37.092Z,100344.00
2023-03-05T02:53:14.573Z,100341.20
2023-03-05T02:55:54.388Z,100338.00
2023-03-05T02:58:31.613Z,100337.80
2023-03-05T03:01:08.760Z,100336.40
2023-03-05T03:03:45.912Z,100330.80
2023-03-05T03:06:23.181Z,100329.80
2023-03-05T03:09:00.758Z,100325.20
2023-03-05T03:11:37.724Z,100327.60
2023-03-05T03:14:15.226Z,100326.40
2023-03-05T03:16:52.706Z,100327.20
2023-03-05T03:19:29.257Z,100328.00
2023-03-05T03:22:05.626Z,100324.00
2023-03-05T03:24:44.232Z,100320.80
2023-03-05T03:27:20.834Z,100319.40
2023-03-05T03:29:57.669Z,100318.80
2023-03-05T03:32:34.771Z,100325.20
2023-03-05T03:35:16.020Z,100321.80
2023-03-05T03:37:51.937Z,100315.40
2023-03-05T03:40:29.408Z,100316.20
2023-03-05T03:43:06.197Z,100313.00
2023-03-05T03:45:45.984Z,100310.80
2023-03-05T03:48:22.709Z,100307.40
2023-03-05T03:50:59.338Z,100308.00
2023-03-05T03:53:36.048Z,100311.00
2023-03-05T03:56:14.572Z,100306.00
2023-03-05T03:58:52.558Z,100306.80
2023-03-05T04:01:30.499Z,100302.40
2023-03-05T04:04:07.398Z,100304.80
2023-03-05T04:06:44.113Z,100305.40
2023-03-05T04:09:21.015Z,100305.80
2023-03-05T04:11:57.534Z,100304.20
2023-03-05T04:14:33.775Z,100304.20
2023-03-05T04:17:11.443Z,100305.40
2023-03-05T04:19:47.779Z,100300.00
2023-03-05T04:22:24.388Z,100299.00
2023-03-05T04:25:01.553Z,100299.60
2023-03-05T04:27:41.012Z,100299.60
2023-03-05T04:30:21.630Z,100302.20
2023-03-05T04:32:58.747Z,100298.20
2023-03-05T04:35:35.335Z,100297.80
2023-03-05T04:38:12.596Z,100291.80
2023-03-05T04:40:50.126Z,100292.80
2023-03-05T04:43:27.281Z,100290.20
2023-03-05T04:46:03.351Z,100291.60
2023-03-05T04:48:40.620Z,100287.20
2023-03-05T04:51:16.852Z,100287.20
2023-03-05T04:53:53.670Z,100287.00
2023-03-05T04:56:30.089Z,100287.20
2023-03-05T04:59:06.447Z,100287.60
2023-03-05T05:01:43.709Z,100280.80
2023-03-05T05:04:20.655Z,100285.00
2023-03-05T05:07:00.321Z,100286.20
2023-03-05T05:09:36.776Z,100284.20
2023-03-05T05:12:16.022Z,100282.60
2023-03-05T05:14:52.867Z,100284.80
2023-03-05T05:17:30.964Z,100283.60
2023-03-05T05:20:08.820Z,100286.00
2023-03-05T05:22:45.453Z,100286.20
2023-03-05T05:25:23.471Z,100284.40
2023-03-05T05:27:59.593Z,100286.40
2023-03-05T05:30:37.053Z,100287.40
2023-03-05T05:33:13.420Z,100283.80
2023-03-05T05:35:50.719Z,100282.40
2023-03-05T05:38:27.191Z,100279.40
2023-03-05T05:41:12.957Z,100283.20
2023-03-05T05:43:48.946Z,100282.80
2023-03-05T05:46:27.090Z,100288.00
2023-03-05T05:49:04.122Z,100288.80
2023-03-05T05:51:40.859Z,100291.00
2023-03-05T05:54:19.743Z,100291.00
2023-03-05T05:56:56.898Z,100292.80
2023-03-05T05:59:33.714Z,100297.40
2023-03-05T06:02:11.509Z,100297.60
2023-03-05T06:04:48.796Z,100302.60
2023-03-05T06:07:25.615Z,100305.20
2023-03-05T06:10:01.933Z,100305.60
2023-03-05T06:12:38.880Z,100312.20
2023-03-05T06:15:19.258Z,100310.80
2023-03-05T06:17:56.088Z,100315.40
2023-03-05T06:20:34.320Z,100316.20
2023-03-05T06:23:11.040Z,100321.00
2023-03-05T06:25:48.063Z,100320.80
2023-03-05T06:28:25.395Z,100322.60
2023-03-05T06:31:14.210Z,100324.40
2023-03-05T06:33:51.976Z,100324.00
2023-03-05T06:36:29.044Z,100327.20
2023-03-05T06:39:06.820Z,100323.40
2023-03-05T06:41:44.755Z,100330.60
2023-03-05T06:44:22.066Z,100337.00
2023-03-05T06:46:58.533Z,100332.00
2023-03-05T06:49:34.589Z,100328.20
2023-03-05T06:52:12.948Z,100326.00
2023-03-05T06:54:50.167Z,100323.20
2023-03-05T06:57:26.560Z,100327.60
2023-03-05T07:00:08.258Z,100325.20
2023-03-05T07:02:44.771Z,100326.20
2023-03-05T07:05:21.880Z,100324.80
2023-03-05T07:07:58.714Z,100318.40
2023-03-05T07:10:36.120Z,100318.20
2023-03-05T07:13:12.628Z,100321.80
2023-03-05T07:15:50.596Z,100326.60
2023-03-05T07:18:27.714Z,100324.20
2023-03-05T07:21:09.095Z,100314.80
2023-03-05T07:23:46.451Z,100311.80
2023-03-05T07:26:23.374Z,100315.80
2023-03-05T07:29:00.627Z,100322.40
2023-03-05T07:31:37.303Z,100323.60
2023-03-05T07:34:15.485Z,100320.40
2023-03-05T07:36:55.910Z,100318.40
2023-03-05T07:39:33.252Z,100325.40
2023-03-05T07:42:09.320Z,100321.20
2023-03-05T07:44:57.977Z,100327.00
2023-03-05T07:47:34.908Z,100323.00
2023-03-05T07:50:16.717Z,100327.40
2023-03-05T07:52:53.215Z,100330.20
2023-03-05T07:55:30.647Z,100326.20
2023-03-05T07:58:06.711Z,100327.60
2023-03-05T08:00:43.168Z,100323.00
2023-03-05T08:03:19.246Z,100332.00
2023-03-05T08:05:55.685Z,100325.60
2023-03-05T08:08:32.824Z,100322.80
2023-03-05T08:11:16.993Z,100323.00
2023-03-05T08:13:53.797Z,100318.20
2023-03-05T08:16:31.357Z,100320.00
2023-03-05T08:19:07.753Z,100319.20
2023-03-05T08:21:44.704Z,100315.20
2023-03-05T08:24:22.842Z,100310.20
2023-03-05T08:27:00.254Z,100304.40
2023-03-05T08:29:37.110Z,100298.60
2023-03-05T08:32:14.734Z,100299.80
2023-03-05T08:34:51.295Z,100300.80
2023-03-05T08:37:28.672Z,100295.40
2023-03-05T08:40:05.516Z,100292.60
2023-03-05T08:42:41.818Z,100294.20
2023-03-05T08:45:22.023Z,100292.00
2023-03-05T08:47:58.798Z,100294.40
2023-03-05T08:50:38.605Z,100288.00
2023-03-05T08:53:16.387Z,100286.80
2023-03-05T08:56:01.308Z,100290.60
2023-03-05T08:58:37.578Z,100287.80
2023-03-05T09:01:16.057Z,100286.00
2023-03-05T09:03:53.287Z,100290.20
2023-03-05T09:06:30.974Z,100284.40
2023-03-05T09:09:07.884Z,100283.80
2023-03-05T09:11:44.766Z,100286.40
2023-03-05T09:14:22.283Z,100283.00
2023-03-05T09:16:58.313Z,100280.20
2023-03-05T09:19:35.482Z,100282.80
2023-03-05T09:22:12.422Z,100280.00
2023-03-05T09:24:49.152Z,100278.00
2023-03-05T09:27:26.331Z,100278.80
2023-03-05T09:30:03.649Z,100272.80
2023-03-05T09:32:40.201Z,100275.00
2023-03-05T09:35:19.038Z,100268.20
2023-03-05T09:37:57.069Z,100268.40
2023-03-05T09:40:46.801Z,100269.80
2023-03-05T09:43:42.682Z,100268.40
2023-03-05T09:46:36.401Z,100265.00
2023-03-05T09:49:23.677Z,100261.40
2023-03-05T09:52:16.143Z,100260.20
2023-03-05T09:55:00.526Z,100256.40
2023-03-05T09:57:45.997Z,100256.20
2023-03-05T10:00:45.235Z,100255.60
2023-03-05T10:03:32.711Z,100254.40
2023-03-05T10:06:23.623Z,100254.80
2023-03-05T10:09:10.424Z,100256.80
2023-03-05T10:11:57.183Z,100246.60
2023-03-05T10:14:41.294Z,100244.80
2023-03-05T10:17:53.531Z,100248.00
2023-03-05T10:21:02.233Z,100244.80
2023-03-05T10:24:02.615Z,100238.80
2023-03-05T10:27:01.576Z,100231.20
2023-03-05T10:30:15.185Z,100230.00
2023-03-05T10:33:01.048Z,100224.60
2023-03-05T10:36:13.492Z,100223.20
2023-03-05T10:39:25.193Z,100227.00
2023-03-05T10:42:19.000Z,100220.40
2023-03-05T10:44:59.017Z,100221.20
2023-03-05T10:47:48.193Z,100216.20
2023-03-05T10:50:28.692Z,100219.40
2023-03-05T10:53:22.089Z,100216.20
2023-03-05T10:55:58.839Z,100213.00
2023-03-05T10:58:35.009Z,100208.80
2023-03-05T11:01:25.352Z,100201.60
2023-03-05T11:04:03.921Z,100201.20
2023-03-05T11:06:45.841Z,100197.80
2023-03-05T11:09:29.647Z,100187.60
2023-03-05T11:12:23.957Z,100187.40
2023-03-05T11:15:28.903Z,100184.60
2023-03-05T11:18:25.468Z,100182.00
2023-03-05T11:21:22.073Z,100176.40
2023-03-05T11:24:14.985Z,100170.40
2023-03-05T11:27:02.581Z,100169.80
2023-03-05T11:29:49.766Z,100165.00
2023-03-05T11:32:31.721Z,100161.80
2023-03-05T11:35:34.688Z,100154.40
2023-03-05T11:38:20.750Z,100148.20
2023-03-05T11:40:58.029Z,100144.40
2023-03-05T11:43:39.077Z,100141.00
2023-03-05T11:46:19.141Z,100135.80
2023-03-05T11:48:56.623Z,100132.40
2023-03-05T11:51:47.906Z,100128.20
2023-03-05T11:54:36.706Z,100126.00
2023-03-05T11:57:18.149Z,100118.60
2023-03-05T11:59:55.129Z,100118.40
2023-03-05T12:02:32.900Z,100112.80
2023-03-05T12:05:11.012Z,100115.00
2023-03-05T12:07:52.587Z,100107.20
2023-03-05T12:10:30.918Z,100097.40
2023-03-05T12:13:23.739Z,100093.00
2023-03-05T12:16:16.276Z,100089.40
2023-03-05T12:19:24.622Z,100085.60
2023-03-05T12:22:02.126Z,100077.80
2023-03-05T12:24:45.282Z,100072.20
2023-03-05T12:27:37.100Z,100067.00
2023-03-05T12:30:58.096Z,100067.00
2023-03-05T12:33:41.817Z,100058.20
2023-03-05T12:36:40.903Z,100049.40
2023-03-05T12:39:59.399Z,100046.40
2023-03-05T12:43:00.326Z,100042.20
2023-03-05T12:45:42.085Z,100036.60
2023-03-05T12:48:47.606Z,100036.80
2023-03-05T12:51:47.716Z,100030.00
2023-03-05T12:54:40.077Z,100024.80
2023-03-05T12:57:24.563Z,100021.60
2023-03-05T13:00:12.848Z,100018.00
2023-03-05T13:02:53.166Z,100010.80
2023-03-05T13:05:35.829Z,100009.20
2023-03-05T13:08:25.526Z,100005.00
2023-03-05T13:11:07.165Z,100003.00
2023-03-05T13:13:49.303Z,100005.00
2023-03-05T13:16:28.218Z,99999.20
2023-03-05T13:19:07.194Z,99994.80
2023-03-05T13:21:44.237Z,99994.60
2023-03-05T13:24:25.048Z,99990.80
2023-03-05T13:27:01.664Z,99986.00
2023-03-05T13:29:38.603Z,99984.00
2023-03-05T13:32:33.275Z,99979.20
2023-03-05T13:35:18.134Z,99976.00
2023-03-05T13:37:56.114Z,99970.60
2023-03-05T13:40:34.317Z,99971.60
2023-03-05T13:43:23.373Z,99975.00
2023-03-05T13:46:03.188Z,99973.20
2023-03-05T13:48:40.409Z,99967.40
2023-03-05T13:51:16.772Z,99966.60
2023-03-05T13:53:54.563Z,99966.00
2023-03-05T13:56:30.589Z,99966.00
2023-03-05T13:59:06.909Z,99964.00
2023-03-05T14:01:48.558Z,99962.00
2023-03-05T14:04:31.152Z,99963.00
2023-03-05T14:07:11.522Z,99959.20
2023-03-05T14:09:54.462Z,99957.80
2023-03-05T14:12:37.734Z,99955.40
2023-03-05T14:15:28.619Z,99950.00
2023-03-05T14:18:24.998Z,99940.40
2023-03-05T14:21:21.019Z,99936.20
2023-03-05T14:23:59.379Z,99935.20
2023-03-05T14:26:40.337Z,99934.40
2023-03-05T14:29:24.521Z,99929.40
2023-03-05T14:32:04.734Z,99930.00
2023-03-05T14:34:45.406Z,99923.80
2023-03-05T14:37:27.873Z,99919.80
2023-03-05T14:40:07.531Z,99917.40
2023-03-05T14:42:57.420Z,99917.80
2023-03-05T14:45:36.862Z,99915.00
2023-03-05T14:48:17.628Z,99908.80
2023-03-05T14:50:57.336Z,99902.60
2023-03-05T14:53:40.736Z,99903.40
2023-03-05T14:56:28.301Z,99902.80
2023-03-05T14:59:04.865Z,99899.20
2023-03-05T15:01:40.877Z,99896.40
2023-03-05T15:04:19.446Z,99897.20
2023-03-05T15:06:57.303Z,99893.20
2023-03-05T15:09:33.700Z,99895.40
2023-03-05T15:12:15.893Z,99885.40
2023-03-05T15:14:53.662Z,99885.80
2023-03-05T15:17:36.256Z,99886.60
2023-03-05T15:20:20.117Z,99883.00
2023-03-05T15:22:55.912Z,99879.60
2023-03-05T15:25:34.819Z,99877.80
2023-03-05T15:28:13.062Z,99876.00
2023-03-05T15:30:51.603Z,99875.60
2023-03-05T15:33:27.685Z,99877.60
2023-03-05T15:36:03.208Z,99877.20
2023-03-05T15:38:41.663Z,99871.60
2023-03-05T15:41:17.868Z,99870.20
2023-03-05T15:43:54.871Z,99868.80
2023-03-05T15:46:31.122Z,99866.00
2023-03-05T15:49:07.648Z,99860.80
2023-03-05T15:51:44.466Z,99862.20
2023-03-05T15:54:20.517Z,99862.60
2023-03-05T15:56:57.547Z,99862.20
2023-03-05T15:59:34.233Z,99862.20
2023-03-05T16:02:11.414Z,99860.00
2023-03-05T16:04:48.734Z,99857.20
2023-03-05T16:07:25.668Z,99858.40
2023-03-05T16:10:03.039Z,99855.40
2023-03-05T16:12:44.428Z,99854.20
2023-03-05T16:15:24.881Z,99853.40
2023-03-05T16:18:04.995Z,99847.60
2023-03-05T16:20:42.471Z,99845.00
2023-03-05T16:23:19.368Z,99849.60
2023-03-05T16:25:57.192Z,99847.60
2023-03-05T16:28:35.564Z,99849.80
2023-03-05T16:31:12.957Z,99844.00
2023-03-05T16:33:49.529Z,99846.00
2023-03-05T16:36:29.155Z,99841.60
2023-03-05T16:39:06.864Z,99841.60
2023-03-05T16:41:44.033Z,99838.80
2023-03-05T16:44:20.935Z,99835.00
2023-03-05T16:46:57.623Z,99836.80
2023-03-05T16:49:35.792Z,99840.80
2023-03-05T16:52:18.726Z,99838.40
2023-03-05T16:54:56.091Z,99835.00
2023-03-05T16:57:32.821Z,99835.00
2023-03-05T17:00:16.538Z,99833.80
2023-03-05T17:02:53.848Z,99835.60
2023-03-05T17:05:30.014Z,99838.40
2023-03-05T17:08:06.534Z,99837.60
2023-03-05T17:10:44.516Z,99835.80
2023-03-05T17:13:21.393Z,99842.20
2023-03-05T17:15:57.823Z,99847.60
2023-03-05T17:18:34.244Z,99848.00
2023-03-05T17:21:10.560Z,99851.40
2023-03-05T17:23:47.269Z,99855.40
2023-03-05T17:26:24.309Z,99860.60
2023-03-05T17:29:00.921Z,99857.00
2023-03-05T17:31:37.514Z,99853.60
2023-03-05T17:34:14.397Z,99862.60
2023-03-05T17:36:51.351Z,99867.40
2023-03-05T17:39:27.889Z,99873.20
2023-03-05T17:42:03.839Z,99877.20
2023-03-05T17:44:40.605Z,99878.60
2023-03-05T17:47:17.956Z,99879.00
2023-03-05T17:49:56.105Z,99886.00
2023-03-05T17:52:32.963Z,99889.40
2023-03-05T17:55:12.705Z,99887.40
2023-03-05T17:57:49.705Z,99891.80
2023-03-05T18:00:32.111Z,99896.00
2023-03-05T18:03:09.571Z,99895.20
2023-03-05T18:05:46.678Z,99898.80
2023-03-05T18:08:23.059Z,99900.00
2023-03-05T18:10:59.262Z,99905.20
2023-03-05T18:13:35.663Z,99901.20
2023-03-05T18:16:14.609Z,99906.00
2023-03-05T18:18:51.130Z,99900.60
2023-03-05T18:21:28.986Z,99903.20
2023-03-05T18:24:05.314Z,99905.20
2023-03-05T18:26:41.552Z,99911.80
2023-03-05T18:29:18.973Z,99906.80
2023-03-05T18:31:55.629Z,99909.80
2023-03-05T18:34:33.091Z,99911.00
2023-03-05T18:37:09.459Z,99914.40
2023-03-05T18:39:45.727Z,99914.00
2023-03-05T18:42:22.758Z,99914.80
2023-03-05T18:44:59.539Z,99914.00
2023-03-05T18:47:36.651Z,99916.60
2023-03-05T18:50:20.448Z,99911.60
2023-03-05T18:52:57.402Z,99918.80
2023-03-05T18:55:36.680Z,99916.00
2023-03-05T18:58:14.711Z,99916.00
2023-03-05T19:00:52.110Z,99919.40
2023-03-05T19:03:28.509Z,99919.40
2023-03-05T19:06:07.047Z,99912.80
2023-03-05T19:08:43.137Z,99914.20
2023-03-05T19:11:25.098Z,99915.20
2023-03-05T19:14:02.150Z,99915.80
2023-03-05T19:16:43.779Z,99919.40
2023-03-05T19:19:26.734Z,99915.80
2023-03-05T19:22:04.427Z,99917.00
2023-03-05T19:24:41.440Z,99916.40
2023-03-05T19:27:20.245Z,99923.20
2023-03-05T19:29:56.584Z,99920.00
2023-03-05T19:32:32.748Z,99918.40
2023-03-05T19:35:11.593Z,99918.80
2023-03-05T19:37:49.910Z,99920.20
2023-03-05T19:40:28.585Z,99921.00
2023-03-05T19:43:07.152Z,99924.80
2023-03-05T19:45:43.658Z,99935.60
2023-03-05T19:48:20.616Z,99944.40
2023-03-05T19:50:56.952Z,99942.60
2023-03-05T19:53:33.861Z,99943.00
2023-03-05T19:56:12.450Z,99942.80
2023-03-05T19:58:50.429Z,99945.60
2023-03-05T20:01:28.467Z,99948.00
2023-03-05T20:04:08.057Z,99941.40
2023-03-05T20:06:44.150Z,99941.60
2023-03-05T20:09:20.792Z,99944.80
2023-03-05T20:12:03.580Z,99938.00
2023-03-05T20:14:40.676Z,99939.40
2023-03-05T20:17:17.034Z,99944.60
2023-03-05T20:19:55.758Z,99945.00
2023-03-05T20:22:33.721Z,99945.60
2023-03-05T20:25:13.066Z,99944.00
2023-03-05T20:27:50.247Z,99947.60
2023-03-05T20:30:28.094Z,99946.40
2023-03-05T20:33:05.320Z,99947.80
2023-03-05T20:35:42.085Z,99942.60
2023-03-05T20:40:21.659Z,99938.80
2023-03-05T20:42:58.770Z,99939.20
2023-03-05T20:45:37.391Z,99938.40
2023-03-05T20:48:15.562Z,99936.20
2023-03-05T20:50:56.066Z,99940.20
2023-03-05T20:53:35.549Z,99938.20
2023-03-05T20:56:13.342Z,99945.00
2023-03-05T20:58:50.447Z,99942.00
2023-03-05T21:01:27.053Z,99941.80
2023-03-05T21:04:04.360Z,99934.60
2023-03-05T21:06:41.302Z,99938.20
2023-03-05T21:09:18.336Z,99936.20
2023-03-05T21:11:57.361Z,99933.20
2023-03-05T21:14:38.074Z,99939.20
2023-03-05T21:17:16.026Z,99938.80
2023-03-05T21:19:53.789Z,99939.00
2023-03-05T21:22:31.153Z,99933.00
2023-03-05T21:25:28.485Z,99931.40
2023-03-05T21:28:08.192Z,99926.60
2023-03-05T21:30:47.339Z,99925.00
2023-03-05T21:33:28.724Z,99927.00
2023-03-05T21:36:05.375Z,99928.00
2023-03-05T21:38:42.995Z,99925.60
2023-03-05T21:41:20.581Z,99924.80
2023-03-05T21:43:57.726Z,99927.60
2023-03-05T21:46:38.376Z,99920.80
2023-03-05T21:49:15.426Z,99915.40
2023-03-05T21:52:17.194Z,99914.40
2023-03-05T21:54:55.103Z,99915.20
2023-03-05T21:57:32.722Z,99908.40
2023-03-05T22:00:15.330Z,99906.00
2023-03-05T22:02:52.902Z,99902.60
2023-03-05T22:05:31.097Z,99902.20
2023-03-05T22:08:09.446Z,99903.80
2023-03-05T22:10:48.408Z,99905.00
2023-03-05T22:13:25.488Z,99900.20
2023-03-05T22:16:07.364Z,99899.60
2023-03-05T22:18:44.699Z,99894.40
2023-03-05T22:21:27.539Z,99895.40
2023-03-05T22:24:05.439Z,99893.00
2023-03-05T22:26:46.676Z,99892.00
2023-03-05T22:29:23.997Z,99890.60
2023-03-05T22:32:01.929Z,99894.00
2023-03-05T22:34:39.355Z,99883.40
2023-03-05T22:37:16.327Z,99880.80
2023-03-05T22:39:56.418Z,99876.00
2023-03-05T22:42:33.718Z,99872.40
2023-03-05T22:45:12.911Z,99879.00
2023-03-05T22:47:52.605Z,99881.00
2023-03-05T22:50:30.525Z,99881.20
2023-03-05T22:53:07.277Z,99883.60
2023-03-05T22:55:46.403Z,99882.80
2023-03-05T22:58:24.061Z,99886.60
2023-03-05T23:01:01.615Z,99884.80
2023-03-05T23:03:38.977Z,99885.20
2023-03-05T23:06:18.683Z,99883.00
2023-03-05T23:08:55.627Z,99877.80
2023-03-05T23:11:32.570Z,99878.80
2023-03-05T23:14:08.951Z,99881.60
2023-03-05T23:16:46.564Z,99879.80
2023-03-05T23:19:22.910Z,99878.80
2023-03-05T23:21:59.836Z,99876.00
2023-03-05T23:24:36.966Z,99871.00
2023-03-05T23:27:16.567Z,99867.80
2023-03-05T23:30:23.452Z,99866.20
2023-03-05T23:33:02.310Z,99864.80
2023-03-05T23:35:44.675Z,99861.40
2023-03-05T23:38:21.862Z,99860.20
2023-03-05T23:41:01.245Z,99858.80
2023-03-05T23:43:37.624Z,99861.60
2023-03-05T23:46:18.297Z,99870.80
2023-03-05T23:48:54.952Z,99872.40
2023-03-05T23:51:31.808Z,99875.20
2023-03-05T23:54:10.085Z,99867.20
2023-03-05T23:56:46.801Z,99872.20
2023-03-05T23:59:25.816Z,99867.20
